createdAt,value
2022-08-28T00:02:26.252Z,54.53
2022-08-28T00:04:53.407Z,54.60
2022-08-28T00:07:19.793Z,54.56
2022-08-28T00:09:46.234Z,54.51
2022-08-28T00:12:12.542Z,54.61
2022-08-28T00:14:38.918Z,54.76
2022-08-28T00:17:05.365Z,54.76
2022-08-28T00:19:34.459Z,54.66
2022-08-28T00:22:04.553Z,54.67
2022-08-28T00:24:30.883Z,54.91
2022-08-28T00:27:16.133Z,54.91
2022-08-28T00:29:45.519Z,54.95
2022-08-28T00:32:13.078Z,54.88
2022-08-28T00:34:39.398Z,54.98
2022-08-28T00:37:05.761Z,55.09
2022-08-28T00:39:32.316Z,55.09
2022-08-28T00:41:59.667Z,55.14
2022-08-28T00:44:27.111Z,55.13
2022-08-28T00:46:55.681Z,55.35
2022-08-28T00:49:27.169Z,55.38
2022-08-28T00:52:12.266Z,55.37
2022-08-28T00:54:50.485Z,55.45
2022-08-28T00:57:32.028Z,55.52
2022-08-28T00:59:58.449Z,55.54
2022-08-28T01:02:26.853Z,55.64
2022-08-28T01:04:54.074Z,55.57
2022-08-28T01:07:22.637Z,55.77
2022-08-28T01:09:52.224Z,55.84
2022-08-28T01:12:24.926Z,55.83
2022-08-28T01:14:52.940Z,55.83
2022-08-28T01:17:20.895Z,55.96
2022-08-28T01:19:55.853Z,56.10
2022-08-28T01:22:36.701Z,55.98
2022-08-28T01:25:18.773Z,56.25
2022-08-28T01:27:46.351Z,56.23
2022-08-28T01:30:16.192Z,56.14
2022-08-28T01:32:49.409Z,56.25
2022-08-28T01:35:19.360Z,56.19
2022-08-28T01:37:46.515Z,56.31
2022-08-28T01:40:19.609Z,56.34
2022-08-28T01:42:46.003Z,56.48
2022-08-28T01:45:15.328Z,56.54
2022-08-28T01:47:43.297Z,56.60
2022-08-28T01:50:12.071Z,56.68
2022-08-28T01:52:39.185Z,56.72
2022-08-28T01:55:07.617Z,56.88
2022-08-28T01:57:34.640Z,56.92
2022-08-28T02:00:01.180Z,56.91
2022-08-28T02:02:28.200Z,56.89
2022-08-28T02:04:55.090Z,56.98
2022-08-28T02:07:21.372Z,57.02
2022-08-28T02:09:47.660Z,57.15
2022-08-28T02:12:14.106Z,57.25
2022-08-28T02:14:41.151Z,57.27
2022-08-28T02:17:08.300Z,57.33
2022-08-28T02:19:34.797Z,57.48
2022-08-28T02:22:03.245Z,57.64
2022-08-28T02:24:29.533Z,57.64
2022-08-28T02:26:55.928Z,57.68
2022-08-28T02:29:22.887Z,57.79
2022-08-28T02:31:50.348Z,57.84
2022-08-28T02:34:16.643Z,57.95
2022-08-28T02:36:43.181Z,58.14
2022-08-28T02:39:10.259Z,58.22
2022-08-28T02:41:37.257Z,58.26
2022-08-28T02:44:03.767Z,58.33
2022-08-28T02:46:30.151Z,58.38
2022-08-28T02:48:56.514Z,58.40
2022-08-28T02:51:23.145Z,58.48
2022-08-28T02:53:49.836Z,58.53
2022-08-28T02:56:16.393Z,58.66
2022-08-28T02:58:42.835Z,58.67
2022-08-28T03:01:11.490Z,58.73
2022-08-28T03:03:38.934Z,58.83
2022-08-28T03:06:08.549Z,58.84
2022-08-28T03:08:34.962Z,58.90
2022-08-28T03:11:01.375Z,58.95
2022-08-28T03:13:29.512Z,58.97
2022-08-28T03:15:56.526Z,59.07
2022-08-28T03:18:26.131Z,59.09
2022-08-28T03:20:53.337Z,59.19
2022-08-28T03:23:25.714Z,59.25
2022-08-28T03:26:08.395Z,59.37
2022-08-28T03:28:41.272Z,59.47
2022-08-28T03:31:11.853Z,59.46
2022-08-28T03:33:38.335Z,59.42
2022-08-28T03:36:10.864Z,59.57
2022-08-28T03:38:37.492Z,59.62
2022-08-28T03:41:09.957Z,59.81
2022-08-28T03:43:36.371Z,59.73
2022-08-28T03:46:05.443Z,59.90
2022-08-28T03:48:35.254Z,59.96
2022-08-28T03:51:06.337Z,60.06
2022-08-28T03:53:33.284Z,60.17
2022-08-28T03:56:00.160Z,60.11
2022-08-28T03:58:27.336Z,60.16
2022-08-28T04:00:53.937Z,60.31
2022-08-28T04:03:20.969Z,60.31
2022-08-28T04:05:47.599Z,60.29
2022-08-28T04:08:16.285Z,60.38
2022-08-28T04:10:44.385Z,60.40
2022-08-28T04:13:11.373Z,60.56
2022-08-28T04:15:37.899Z,60.53
2022-08-28T04:18:04.693Z,60.57
2022-08-28T04:20:31.107Z,60.56
2022-08-28T04:22:57.477Z,60.75
2022-08-28T04:25:26.988Z,60.61
2022-08-28T04:27:53.883Z,60.66
2022-08-28T04:30:20.420Z,60.64
2022-08-28T04:32:47.175Z,60.71
2022-08-28T04:35:14.198Z,60.79
2022-08-28T04:37:40.880Z,60.69
2022-08-28T04:40:10.093Z,60.77
2022-08-28T04:42:39.638Z,60.82
2022-08-28T04:45:06.643Z,60.88
2022-08-28T04:47:37.336Z,60.71
2022-08-28T04:50:06.194Z,60.80
2022-08-28T04:52:32.877Z,60.64
2022-08-28T04:54:59.608Z,60.58
2022-08-28T04:57:27.205Z,60.51
2022-08-28T04:59:53.651Z,60.64
2022-08-28T05:02:20.177Z,60.59
2022-08-28T05:04:47.283Z,60.60
2022-08-28T05:07:13.807Z,60.50
2022-08-28T05:09:40.097Z,60.55
2022-08-28T05:12:06.626Z,60.68
2022-08-28T05:14:33.300Z,60.44
2022-08-28T05:16:59.672Z,60.41
2022-08-28T05:19:27.168Z,60.47
2022-08-28T05:21:54.200Z,60.40
2022-08-28T05:24:21.725Z,60.32
2022-08-28T05:26:48.752Z,60.18
2022-08-28T05:29:16.713Z,60.20
2022-08-28T05:31:44.070Z,60.13
2022-08-28T05:34:11.997Z,59.99
2022-08-28T05:36:39.289Z,59.97
2022-08-28T05:39:08.859Z,59.79
2022-08-28T05:41:36.706Z,59.82
2022-08-28T05:44:06.013Z,59.70
2022-08-28T05:46:32.708Z,59.68
2022-08-28T05:48:59.694Z,59.48
2022-08-28T05:51:26.378Z,59.50
2022-08-28T05:53:53.816Z,59.21
2022-08-28T05:56:28.927Z,59.32
2022-08-28T05:58:59.768Z,59.20
2022-08-28T06:01:31.883Z,59.13
2022-08-28T06:04:04.555Z,58.76
2022-08-28T06:06:33.882Z,58.85
2022-08-28T06:09:04.721Z,59.02
2022-08-28T06:11:32.073Z,58.60
2022-08-28T06:14:02.739Z,58.52
2022-08-28T06:16:32.119Z,58.24
2022-08-28T06:18:59.682Z,58.30
2022-08-28T06:21:26.103Z,58.06
2022-08-28T06:23:52.581Z,57.89
2022-08-28T06:26:19.075Z,57.95
2022-08-28T06:28:45.765Z,57.68
2022-08-28T06:31:23.646Z,57.63
2022-08-28T06:33:56.529Z,57.46
2022-08-28T06:36:26.620Z,57.25
2022-08-28T06:38:57.426Z,56.93
2022-08-28T06:41:24.620Z,56.83
2022-08-28T06:43:51.044Z,56.62
2022-08-28T06:46:17.483Z,56.53
2022-08-28T06:48:44.071Z,56.34
2022-08-28T06:51:11.770Z,56.14
2022-08-28T06:53:40.276Z,55.84
2022-08-28T06:56:10.527Z,55.70
2022-08-28T06:58:42.444Z,55.42
2022-08-28T07:01:26.239Z,55.23
2022-08-28T07:03:55.280Z,55.08
2022-08-28T07:06:22.702Z,54.88
2022-08-28T07:08:49.291Z,54.86
2022-08-28T07:11:26.056Z,54.45
2022-08-28T07:13:54.019Z,54.26
2022-08-28T07:16:23.219Z,54.15
2022-08-28T07:18:50.036Z,54.00
2022-08-28T07:21:18.095Z,53.70
2022-08-28T07:23:45.397Z,53.57
2022-08-28T07:26:15.862Z,53.43
2022-08-28T07:28:42.860Z,53.26
2022-08-28T07:31:14.882Z,52.66
2022-08-28T07:33:42.895Z,52.68
2022-08-28T07:36:15.936Z,52.28
2022-08-28T07:38:57.433Z,52.07
2022-08-28T07:41:29.481Z,51.95
2022-08-28T07:44:15.357Z,51.73
2022-08-28T07:46:42.041Z,51.33
2022-08-28T07:49:09.027Z,50.83
2022-08-28T07:51:35.889Z,51.03
2022-08-28T07:54:03.250Z,50.58
2022-08-28T07:56:30.056Z,50.28
2022-08-28T07:58:57.597Z,49.89
2022-08-28T08:01:25.912Z,50.07
2022-08-28T08:03:52.394Z,49.55
2022-08-28T08:06:28.068Z,49.24
2022-08-28T08:09:02.140Z,48.65
2022-08-28T08:11:32.212Z,48.15
2022-08-28T08:14:04.762Z,47.56
2022-08-28T08:16:34.418Z,47.51
2022-08-28T08:19:02.852Z,46.91
2022-08-28T08:21:30.574Z,46.95
2022-08-28T08:23:58.288Z,46.70
2022-08-28T08:26:27.333Z,45.95
2022-08-28T08:28:54.076Z,46.08
2022-08-28T08:31:24.007Z,45.47
2022-08-28T08:33:54.741Z,44.57
2022-08-28T08:36:22.932Z,44.08
2022-08-28T08:38:50.258Z,43.71
2022-08-28T08:41:39.437Z,42.95
2022-08-28T08:44:18.111Z,42.47
2022-08-28T08:46:50.268Z,42.10
2022-08-28T08:49:20.378Z,40.89
2022-08-28T08:52:14.808Z,40.36
2022-08-28T08:55:07.757Z,39.73
2022-08-28T08:57:35.694Z,39.23
2022-08-28T09:00:06.700Z,37.91
2022-08-28T09:02:38.318Z,37.25
2022-08-28T09:05:08.365Z,36.08
2022-08-28T09:07:39.058Z,33.78
2022-08-28T09:10:10.515Z,31.35
2022-08-28T09:13:00.330Z,29.44
2022-08-28T09:15:32.728Z,27.01
2022-08-28T09:18:11.759Z,25.03
2022-08-28T09:20:38.208Z,23.01
2022-08-28T09:23:12.433Z,21.49
2022-08-28T09:25:55.019Z,20.35
2022-08-28T09:28:27.137Z,19.03
2022-08-28T09:31:14.921Z,18.15
2022-08-28T09:33:44.587Z,16.80
2022-08-28T09:36:33.357Z,15.58
2022-08-28T09:39:48.142Z,15.12
2022-08-28T09:42:40.915Z,13.89
2022-08-28T09:45:20.593Z,13.05
2022-08-28T09:47:50.130Z,12.56
2022-08-28T09:50:16.406Z,12.32
2022-08-28T09:52:42.716Z,11.86
2022-08-28T09:55:14.161Z,11.58
2022-08-28T09:57:42.205Z,11.06
2022-08-28T10:00:09.346Z,10.94
2022-08-28T10:03:03.290Z,10.33
2022-08-28T10:05:45.317Z,9.95
2022-08-28T10:08:29.778Z,9.52
2022-08-28T10:11:01.456Z,9.51
2022-08-28T10:13:36.181Z,9.41
2022-08-28T10:16:13.325Z,9.14
2022-08-28T10:18:46.057Z,8.96
2022-08-28T10:21:14.807Z,8.84
2022-08-28T10:24:13.782Z,8.69
2022-08-28T10:26:49.125Z,8.22
2022-08-28T10:29:26.931Z,7.53
2022-08-28T10:32:29.006Z,7.36
2022-08-28T10:35:02.281Z,7.38
2022-08-28T10:37:41.832Z,7.74
2022-08-28T10:40:14.960Z,7.55
2022-08-28T10:42:44.925Z,7.84
2022-08-28T10:45:11.485Z,8.31
2022-08-28T10:47:41.295Z,8.73
2022-08-28T10:50:14.343Z,8.82
2022-08-28T10:52:47.501Z,9.08
2022-08-28T10:55:39.310Z,9.19
2022-08-28T10:58:24.302Z,9.52
2022-08-28T11:00:55.339Z,9.62
2022-08-28T11:03:34.274Z,9.64
2022-08-28T11:06:05.793Z,9.83
2022-08-28T11:08:35.147Z,9.98
2022-08-28T11:11:03.935Z,9.79
2022-08-28T11:13:54.981Z,9.78
2022-08-28T11:16:24.309Z,9.59
2022-08-28T11:19:09.202Z,9.60
2022-08-28T11:21:54.523Z,9.60
2022-08-28T11:24:30.768Z,9.83
2022-08-28T11:27:03.259Z,10.07
2022-08-28T11:29:57.741Z,10.84
2022-08-28T11:32:33.189Z,11.42
2022-08-28T11:34:59.417Z,11.97
2022-08-28T11:37:39.798Z,12.53
2022-08-28T11:40:29.367Z,13.05
2022-08-28T11:43:14.130Z,13.89
2022-08-28T11:45:47.046Z,14.48
2022-08-28T11:48:33.065Z,15.40
2022-08-28T11:51:06.891Z,15.63
2022-08-28T11:53:58.198Z,15.88
2022-08-28T11:56:40.166Z,16.47
2022-08-28T11:59:25.405Z,16.62
2022-08-28T12:02:38.759Z,16.76
2022-08-28T12:05:09.466Z,17.50
2022-08-28T12:07:38.166Z,17.80
2022-08-28T12:10:19.820Z,18.26
2022-08-28T12:12:46.242Z,18.79
2022-08-28T12:15:27.777Z,19.38
2022-08-28T12:18:01.515Z,19.94
2022-08-28T12:20:29.937Z,20.42
2022-08-28T12:23:00.463Z,20.81
2022-08-28T12:25:41.693Z,21.04
2022-08-28T12:28:22.356Z,21.26
2022-08-28T12:31:20.899Z,21.28
2022-08-28T12:34:01.527Z,21.24
2022-08-28T12:36:28.144Z,21.11
2022-08-28T12:38:59.724Z,21.32
2022-08-28T12:41:26.525Z,21.64
2022-08-28T12:43:56.131Z,21.97
2022-08-28T12:46:44.957Z,22.05
2022-08-28T12:49:31.977Z,22.27
2022-08-28T12:52:10.125Z,22.74
2022-08-28T12:54:36.476Z,22.96
2022-08-28T12:57:07.747Z,23.10
2022-08-28T12:59:39.546Z,23.45
2022-08-28T13:02:09.354Z,23.97
2022-08-28T13:04:49.315Z,24.02
2022-08-28T13:07:17.273Z,24.29
2022-08-28T13:09:47.307Z,24.57
2022-08-28T13:12:23.740Z,24.59
2022-08-28T13:15:06.090Z,24.83
2022-08-28T13:17:54.209Z,25.15
2022-08-28T13:20:30.163Z,25.18
2022-08-28T13:22:57.202Z,25.29
2022-08-28T13:25:42.019Z,25.59
2022-08-28T13:28:13.809Z,25.44
2022-08-28T13:30:40.196Z,25.87
2022-08-28T13:33:15.946Z,26.21
2022-08-28T13:35:42.296Z,26.27
2022-08-28T13:38:16.774Z,26.85
2022-08-28T13:41:03.401Z,27.32
2022-08-28T13:43:43.436Z,27.96
2022-08-28T13:46:09.769Z,28.50
2022-08-28T13:48:36.258Z,28.72
2022-08-28T13:51:10.482Z,29.48
2022-08-28T13:53:37.946Z,29.86
2022-08-28T13:56:04.665Z,30.04
2022-08-28T13:58:32.042Z,30.39
2022-08-28T14:00:59.019Z,30.58
2022-08-28T14:03:40.657Z,30.80
2022-08-28T14:06:11.199Z,31.54
2022-08-28T14:08:39.143Z,31.69
2022-08-28T14:11:06.616Z,31.58
2022-08-28T14:13:33.404Z,31.66
2022-08-28T14:16:04.526Z,31.72
2022-08-28T14:18:31.464Z,31.87
2022-08-28T14:20:57.918Z,32.10
2022-08-28T14:23:24.331Z,31.98
2022-08-28T14:25:51.660Z,32.26
2022-08-28T14:28:18.413Z,32.37
2022-08-28T14:30:49.694Z,32.53
2022-08-28T14:33:18.951Z,32.69
2022-08-28T14:35:48.390Z,32.64
2022-08-28T14:38:15.193Z,32.73
2022-08-28T14:40:42.629Z,32.80
2022-08-28T14:43:11.152Z,32.86
2022-08-28T14:45:47.734Z,33.10
2022-08-28T14:48:16.536Z,32.99
2022-08-28T14:50:46.056Z,33.16
2022-08-28T14:53:13.216Z,33.06
2022-08-28T14:55:43.179Z,33.14
2022-08-28T14:58:09.862Z,33.23
2022-08-28T15:00:54.400Z,33.10
2022-08-28T15:03:21.209Z,33.33
2022-08-28T15:05:47.531Z,33.79
2022-08-28T15:08:16.507Z,33.82
2022-08-28T15:10:43.423Z,33.99
2022-08-28T15:13:10.799Z,34.00
2022-08-28T15:15:41.556Z,34.22
2022-08-28T15:18:09.652Z,33.96
2022-08-28T15:20:40.550Z,34.10
2022-08-28T15:23:08.273Z,34.37
2022-08-28T15:25:34.827Z,34.45
2022-08-28T15:28:01.242Z,34.50
2022-08-28T15:30:27.824Z,34.58
2022-08-28T15:32:54.916Z,34.96
2022-08-28T15:35:21.446Z,34.96
2022-08-28T15:37:48.251Z,35.12
2022-08-28T15:40:33.765Z,35.29
2022-08-28T15:43:00.234Z,35.65
2022-08-28T15:45:26.780Z,35.90
2022-08-28T15:47:53.560Z,35.94
2022-08-28T15:50:20.161Z,35.98
2022-08-28T15:52:46.482Z,36.19
2022-08-28T15:55:12.840Z,36.62
2022-08-28T15:57:39.773Z,36.95
2022-08-28T16:00:10.366Z,37.07
2022-08-28T16:02:37.365Z,37.38
2022-08-28T16:05:04.500Z,37.58
2022-08-28T16:07:34.629Z,38.07
2022-08-28T16:10:06.431Z,38.26
2022-08-28T16:12:33.783Z,38.59
2022-08-28T16:15:00.399Z,38.87
2022-08-28T16:17:26.887Z,39.21
2022-08-28T16:19:53.681Z,39.29
2022-08-28T16:22:20.034Z,39.60
2022-08-28T16:24:47.049Z,39.61
2022-08-28T16:27:15.640Z,40.06
2022-08-28T16:29:43.873Z,40.42
2022-08-28T16:32:11.709Z,40.55
2022-08-28T16:34:39.221Z,40.79
2022-08-28T16:37:06.252Z,40.88
2022-08-28T16:39:35.868Z,41.30
2022-08-28T16:42:02.994Z,41.41
2022-08-28T16:44:29.365Z,41.77
2022-08-28T16:46:55.895Z,41.92
2022-08-28T16:49:23.428Z,42.14
2022-08-28T16:51:50.168Z,42.28
2022-08-28T16:54:17.526Z,42.52
2022-08-28T16:56:44.670Z,42.52
2022-08-28T16:59:15.753Z,42.50
2022-08-28T17:01:42.842Z,42.64
2022-08-28T17:04:10.188Z,42.69
2022-08-28T17:06:36.791Z,42.80
2022-08-28T17:09:04.381Z,43.08
2022-08-28T17:11:30.861Z,43.22
2022-08-28T17:13:58.736Z,43.61
2022-08-28T17:16:30.506Z,43.84
2022-08-28T17:18:58.025Z,44.24
2022-08-28T17:21:43.089Z,44.26
2022-08-28T17:24:14.101Z,44.64
2022-08-28T17:26:41.697Z,45.23
2022-08-28T17:29:08.760Z,45.33
2022-08-28T17:31:35.210Z,45.73
2022-08-28T17:34:01.734Z,46.03
2022-08-28T17:36:33.559Z,46.52
2022-08-28T17:39:06.613Z,46.81
2022-08-28T17:41:33.479Z,47.40
2022-08-28T17:44:01.998Z,47.71
2022-08-28T17:46:31.758Z,48.14
2022-08-28T17:49:01.919Z,48.45
2022-08-28T17:51:42.176Z,48.84
2022-08-28T17:54:11.971Z,49.25
2022-08-28T17:56:38.952Z,49.30
2022-08-28T17:59:05.930Z,49.58
2022-08-28T18:01:32.652Z,49.97
2022-08-28T18:03:59.324Z,50.10
2022-08-28T18:06:26.001Z,50.45
2022-08-28T18:08:52.878Z,50.52
2022-08-28T18:11:19.670Z,50.57
2022-08-28T18:13:46.437Z,51.02
2022-08-28T18:16:13.033Z,51.07
2022-08-28T18:18:40.728Z,51.32
2022-08-28T18:21:09.693Z,51.38
2022-08-28T18:23:36.756Z,51.41
2022-08-28T18:26:04.123Z,51.63
2022-08-28T18:28:32.101Z,52.03
2022-08-28T18:31:00.233Z,52.14
2022-08-28T18:33:41.925Z,52.26
2022-08-28T18:36:11.349Z,52.50
2022-08-28T18:38:38.523Z,52.67
2022-08-28T18:41:06.575Z,53.10
2022-08-28T18:43:33.450Z,53.18
2022-08-28T18:46:01.365Z,53.24
2022-08-28T18:48:28.216Z,53.63
2022-08-28T18:50:55.372Z,53.51
2022-08-28T18:53:22.666Z,53.80
2022-08-28T18:55:52.749Z,54.00
2022-08-28T18:58:22.310Z,54.19
2022-08-28T19:00:49.234Z,54.42
2022-08-28T19:03:16.066Z,54.69
2022-08-28T19:05:42.706Z,54.81
2022-08-28T19:08:09.221Z,54.95
2022-08-28T19:10:37.066Z,55.27
2022-08-28T19:13:04.608Z,55.40
2022-08-28T19:15:32.624Z,55.73
2022-08-28T19:18:00.705Z,55.92
2022-08-28T19:20:27.552Z,56.10
2022-08-28T19:22:55.235Z,56.23
2022-08-28T19:25:28.351Z,56.37
2022-08-28T19:27:59.148Z,56.43
2022-08-28T19:30:28.303Z,56.77
2022-08-28T19:32:55.492Z,57.05
2022-08-28T19:35:24.548Z,57.11
2022-08-28T19:37:52.528Z,57.33
2022-08-28T19:40:19.918Z,57.41
2022-08-28T19:42:46.499Z,57.72
2022-08-28T19:45:14.517Z,57.92
2022-08-28T19:47:41.611Z,57.99
2022-08-28T19:50:10.023Z,58.18
2022-08-28T19:52:37.233Z,58.44
2022-08-28T19:55:05.476Z,58.60
2022-08-28T19:57:32.772Z,58.92
2022-08-28T19:59:59.437Z,58.91
2022-08-28T20:02:26.531Z,59.17
2022-08-28T20:04:53.874Z,59.36
2022-08-28T20:07:21.353Z,59.53
2022-08-28T20:09:47.718Z,59.72
2022-08-28T20:12:14.157Z,59.56
2022-08-28T20:14:41.926Z,59.99
2022-08-28T20:17:08.720Z,59.89
2022-08-28T20:19:35.258Z,60.23
2022-08-28T20:22:02.462Z,60.15
2022-08-28T20:24:29.902Z,60.49
2022-08-28T20:26:56.202Z,60.36
2022-08-28T20:29:23.514Z,60.43
2022-08-28T20:31:50.545Z,60.63
2022-08-28T20:34:18.129Z,60.99
2022-08-28T20:36:44.827Z,61.01
2022-08-28T20:39:11.781Z,61.12
2022-08-28T20:41:39.883Z,61.23
2022-08-28T20:44:08.907Z,61.56
2022-08-28T20:46:40.445Z,61.50
2022-08-28T20:49:11.678Z,61.72
2022-08-28T20:52:00.185Z,61.58
2022-08-28T20:54:32.311Z,62.03
2022-08-28T20:57:02.055Z,61.91
2022-08-28T20:59:39.603Z,61.99
2022-08-28T21:02:27.077Z,62.31
2022-08-28T21:04:54.016Z,62.38
2022-08-28T21:07:22.561Z,62.31
2022-08-28T21:10:06.005Z,62.44
2022-08-28T21:12:38.296Z,62.51
2022-08-28T21:15:11.883Z,62.58
2022-08-28T21:17:39.679Z,62.85
2022-08-28T21:20:10.283Z,62.88
2022-08-28T21:22:37.870Z,63.06
2022-08-28T21:25:07.466Z,63.16
2022-08-28T21:27:34.367Z,63.16
2022-08-28T21:30:02.076Z,63.06
2022-08-28T21:32:29.621Z,63.36
2022-08-28T21:34:55.945Z,63.32
2022-08-28T21:37:22.800Z,63.28
2022-08-28T21:39:49.196Z,63.42
2022-08-28T21:42:15.764Z,63.58
2022-08-28T21:44:48.377Z,63.59
2022-08-28T21:47:20.647Z,63.80
2022-08-28T21:49:48.800Z,63.69
2022-08-28T21:52:16.228Z,63.79
2022-08-28T21:54:42.509Z,64.00
2022-08-28T21:57:09.042Z,64.08
2022-08-28T21:59:37.777Z,63.93
2022-08-28T22:02:04.976Z,64.02
2022-08-28T22:04:31.686Z,64.00
2022-08-28T22:06:58.199Z,64.00
2022-08-28T22:09:24.468Z,63.90
2022-08-28T22:11:50.802Z,64.23
2022-08-28T22:14:17.790Z,63.99
2022-08-28T22:16:44.365Z,64.13
2022-08-28T22:19:10.728Z,64.19
2022-08-28T22:22:13.343Z,64.35
2022-08-28T22:24:39.926Z,64.18
2022-08-28T22:27:06.344Z,64.26
2022-08-28T22:29:35.962Z,64.24
2022-08-28T22:32:04.821Z,64.54
2022-08-28T22:34:37.486Z,64.42
2022-08-28T22:37:04.326Z,64.36
2022-08-28T22:39:30.605Z,64.53
2022-08-28T22:41:56.867Z,64.52
2022-08-28T22:44:23.341Z,64.61
2022-08-28T22:46:49.711Z,64.78
2022-08-28T22:49:16.033Z,64.71
2022-08-28T22:51:42.298Z,64.86
2022-08-28T22:54:08.740Z,64.91
2022-08-28T22:56:35.740Z,64.67
2022-08-28T22:59:02.179Z,64.77
2022-08-28T23:01:29.230Z,64.83
2022-08-28T23:03:56.997Z,65.15
2022-08-28T23:06:23.290Z,65.17
2022-08-28T23:08:49.620Z,65.35
2022-08-28T23:11:16.364Z,65.30
2022-08-28T23:13:42.911Z,65.55
2022-08-28T23:16:09.309Z,65.45
2022-08-28T23:19:06.110Z,65.68
2022-08-28T23:21:23.698Z,65.61
2022-08-28T23:23:54.261Z,65.71
2022-08-28T23:26:21.547Z,65.81
2022-08-28T23:28:48.620Z,65.85
2022-08-28T23:31:15.064Z,65.91
2022-08-28T23:33:41.850Z,65.81
2022-08-28T23:36:09.084Z,65.95
2022-08-28T23:38:36.775Z,65.98
2022-08-28T23:41:04.577Z,66.16
2022-08-28T23:43:31.652Z,66.21
2022-08-28T23:45:58.418Z,66.43
2022-08-28T23:48:25.828Z,66.26
2022-08-28T23:50:52.441Z,66.37
2022-08-28T23:53:19.698Z,66.36
2022-08-28T23:55:46.450Z,66.54
2022-08-28T23:58:16.738Z,66.58
